Two Dot, Montana
Current Conditions -  °F | °C
As of 11:54 PM on Monday 20 Oct 2014 (Local Time) from KLWT Reporting Station
Clear Clear  
Wind Chill: 45°   Ceiling: Unl
Heat Index: 47°   Visibility: 10mi
Dew Point: 34°   Wind: 5mph
Humidity: 61%   Direction: 300°WNW
Pressure: 29.78"   Gusts: NA
Location:  46.4657°N, 110.033°W
Report Text: KLWT 210554Z AUTO 30004KT 10SM CLR 08/01 A2978 RMK AO2 SLP057 T00830011 10200 20083 56009
Loading
Personal Weather Stations






























Interactive Weather Map
Tropical Storm Tracking
New forecast layout! Learn more

10-Day Weather Forecast

Advertisements
Track Severe Weather on mobile